createdAt,value
2019-04-06T00:01:35.069Z,29.03
2019-04-06T00:04:04.234Z,32.93
2019-04-06T00:06:33.416Z,28.73
2019-04-06T00:09:02.694Z,31.43
2019-04-06T00:11:31.891Z,29.87
2019-04-06T00:14:01.086Z,29.80
2019-04-06T00:16:30.289Z,28.23
2019-04-06T00:18:59.447Z,29.97
2019-04-06T00:21:28.687Z,29.73
2019-04-06T00:23:57.849Z,30.83
2019-04-06T00:26:27.069Z,32.73
2019-04-06T00:28:56.243Z,29.53
2019-04-06T00:31:47.514Z,29.27
2019-04-06T00:34:16.819Z,28.80
2019-04-06T00:36:45.971Z,29.43
2019-04-06T00:39:15.165Z,29.13
2019-04-06T00:41:44.293Z,32.17
2019-04-06T00:44:13.448Z,27.27
2019-04-06T00:46:42.605Z,29.47
2019-04-06T00:49:11.747Z,25.83
2019-04-06T00:51:40.954Z,27.07
2019-04-06T00:54:10.095Z,29.33
2019-04-06T00:56:39.268Z,29.97
2019-04-06T00:59:08.409Z,31.07
2019-04-06T01:01:37.596Z,30.83
2019-04-06T01:04:06.790Z,31.03
2019-04-06T01:06:35.945Z,26.43
2019-04-06T01:09:08.907Z,28.60
2019-04-06T01:11:38.107Z,28.90
2019-04-06T01:14:07.346Z,31.50
2019-04-06T01:16:36.466Z,27.80
2019-04-06T01:19:05.679Z,29.17
2019-04-06T01:21:34.833Z,27.63
2019-04-06T01:24:03.973Z,29.93
2019-04-06T01:26:33.109Z,28.43
2019-04-06T01:29:02.282Z,26.60
2019-04-06T01:31:31.509Z,29.23
2019-04-06T01:34:00.855Z,29.97
2019-04-06T01:36:30.049Z,29.10
2019-04-06T01:38:59.198Z,30.83
2019-04-06T01:41:28.335Z,29.57
2019-04-06T01:43:57.482Z,28.10
2019-04-06T01:46:26.655Z,24.93
2019-04-06T01:48:55.800Z,24.13
2019-04-06T01:51:24.974Z,26.83
2019-04-06T01:53:54.113Z,27.07
2019-04-06T01:56:23.388Z,26.97
2019-04-06T01:58:54.107Z,27.10
2019-04-06T02:01:45.645Z,28.67
2019-04-06T02:04:14.827Z,28.43
2019-04-06T02:06:43.963Z,27.50
2019-04-06T02:09:13.120Z,25.83
2019-04-06T02:11:42.285Z,27.00
2019-04-06T02:14:11.480Z,28.43
2019-04-06T02:16:41.041Z,27.10
2019-04-06T02:19:10.215Z,28.13
2019-04-06T02:21:39.375Z,28.77
2019-04-06T02:24:08.552Z,30.97
2019-04-06T02:26:37.682Z,31.20
2019-04-06T02:29:06.923Z,30.43
2019-04-06T02:31:54.575Z,29.43
2019-04-06T02:34:35.446Z,31.53
2019-04-06T02:37:23.345Z,28.23
2019-04-06T02:40:29.916Z,30.50
2019-04-06T02:43:24.030Z,28.60
2019-04-06T02:45:53.197Z,27.00
2019-04-06T02:48:22.392Z,27.37
2019-04-06T02:50:51.743Z,29.93
2019-04-06T02:53:20.876Z,29.03
2019-04-06T02:55:50.004Z,28.10
2019-04-06T02:58:19.302Z,30.17
2019-04-06T03:00:48.765Z,28.97
2019-04-06T03:03:18.015Z,27.90
2019-04-06T03:05:47.287Z,27.87
2019-04-06T03:08:16.488Z,28.10
2019-04-06T03:10:45.620Z,25.93
2019-04-06T03:13:14.776Z,22.77
2019-04-06T03:15:44.110Z,27.27
2019-04-06T03:18:13.289Z,27.70
2019-04-06T03:20:42.430Z,26.87
2019-04-06T03:23:11.554Z,24.17
2019-04-06T03:25:40.731Z,23.17
2019-04-06T03:28:09.869Z,23.43
2019-04-06T03:30:39.057Z,23.27
2019-04-06T03:33:08.243Z,22.93
2019-04-06T03:35:37.757Z,21.97
2019-04-06T03:38:07.319Z,20.57
2019-04-06T03:40:36.470Z,20.30
2019-04-06T03:43:05.672Z,23.97
2019-04-06T03:45:34.813Z,22.77
2019-04-06T03:48:04.087Z,22.20
2019-04-06T03:50:33.437Z,22.30
2019-04-06T03:53:02.776Z,23.00
2019-04-06T03:55:31.934Z,23.13
2019-04-06T03:58:01.106Z,22.27
2019-04-06T04:00:30.256Z,22.70
2019-04-06T04:02:59.407Z,21.23
2019-04-06T04:05:28.561Z,21.43
2019-04-06T04:07:57.785Z,21.40
2019-04-06T04:10:33.672Z,20.37
2019-04-06T04:13:02.838Z,21.00
2019-04-06T04:15:32.034Z,21.77
2019-04-06T04:18:01.419Z,22.00
2019-04-06T04:20:30.790Z,20.20
2019-04-06T04:23:00.263Z,21.67
2019-04-06T04:25:29.412Z,22.23
2019-04-06T04:27:58.581Z,24.67
2019-04-06T04:30:33.342Z,22.63
2019-04-06T04:32:58.781Z,26.77
2019-04-06T04:35:28.307Z,21.43
2019-04-06T04:37:57.451Z,25.27
2019-04-06T04:40:26.701Z,23.73
2019-04-06T04:42:55.839Z,24.93
2019-04-06T04:45:25.016Z,23.60
2019-04-06T04:47:54.191Z,25.00
2019-04-06T04:50:23.351Z,22.77
2019-04-06T04:52:52.579Z,25.40
2019-04-06T04:55:21.727Z,24.27
2019-04-06T04:57:50.888Z,22.13
2019-04-06T05:00:21.515Z,20.13
2019-04-06T05:02:50.753Z,23.80
2019-04-06T05:05:19.905Z,22.70
2019-04-06T05:07:49.076Z,21.37
2019-04-06T05:10:18.273Z,22.00
2019-04-06T05:12:47.443Z,22.40
2019-04-06T05:15:23.203Z,23.60
2019-04-06T05:17:52.317Z,22.47
2019-04-06T05:20:23.785Z,22.43
2019-04-06T05:22:52.445Z,21.20
2019-04-06T05:25:21.583Z,22.23
2019-04-06T05:27:52.686Z,21.00
2019-04-06T05:30:21.587Z,20.67
2019-04-06T05:32:50.739Z,19.73
2019-04-06T05:35:19.863Z,18.70
2019-04-06T05:37:49.083Z,21.77
2019-04-06T05:40:18.272Z,20.20
2019-04-06T05:42:47.442Z,19.70
2019-04-06T05:45:16.603Z,21.73
2019-04-06T05:47:45.748Z,21.97
2019-04-06T05:50:15.099Z,18.73
2019-04-06T05:52:44.620Z,22.23
2019-04-06T05:55:13.935Z,24.07
2019-04-06T05:57:43.208Z,22.83
2019-04-06T06:00:12.712Z,24.53
2019-04-06T06:02:41.963Z,21.23
2019-04-06T06:05:11.258Z,23.20
2019-04-06T06:07:40.645Z,23.20
2019-04-06T06:10:09.884Z,22.93
2019-04-06T06:12:39.124Z,23.57
2019-04-06T06:15:08.411Z,24.63
2019-04-06T06:17:37.553Z,22.97
2019-04-06T06:20:08.508Z,22.17
2019-04-06T06:22:37.694Z,23.10
2019-04-06T06:25:07.865Z,25.07
2019-04-06T06:27:36.994Z,24.73
2019-04-06T06:30:07.244Z,22.30
2019-04-06T06:32:36.401Z,24.73
2019-04-06T06:35:06.526Z,22.27
2019-04-06T06:37:35.669Z,26.30
2019-04-06T06:40:05.264Z,25.77
2019-04-06T06:42:34.500Z,24.57
2019-04-06T06:45:03.975Z,24.90
2019-04-06T06:47:33.156Z,25.43
2019-04-06T06:50:02.309Z,25.53
2019-04-06T06:52:31.470Z,27.47
2019-04-06T06:55:00.744Z,26.83
2019-04-06T06:57:29.948Z,26.47
2019-04-06T06:59:59.126Z,26.33
2019-04-06T07:02:28.552Z,23.17
2019-04-06T07:04:58.031Z,27.77
2019-04-06T07:07:27.166Z,23.80
2019-04-06T07:10:04.694Z,24.47
2019-04-06T07:12:27.230Z,24.63
2019-04-06T07:14:56.392Z,23.70
2019-04-06T07:17:25.638Z,23.03
2019-04-06T07:19:54.828Z,23.73
2019-04-06T07:22:24.322Z,23.33
2019-04-06T07:24:53.860Z,23.93
2019-04-06T07:27:23.548Z,23.40
2019-04-06T07:29:52.840Z,22.60
2019-04-06T07:32:22.002Z,22.83
2019-04-06T07:34:51.283Z,21.17
2019-04-06T07:37:20.528Z,21.77
2019-04-06T07:39:49.717Z,21.13
2019-04-06T07:42:18.854Z,21.93
2019-04-06T07:44:48.024Z,22.50
2019-04-06T07:47:18.397Z,20.37
2019-04-06T07:49:47.534Z,20.63
2019-04-06T07:52:16.768Z,22.53
2019-04-06T07:54:45.965Z,21.73
2019-04-06T07:57:15.269Z,20.77
2019-04-06T07:59:44.745Z,21.30
2019-04-06T08:02:14.117Z,21.03
2019-04-06T08:04:43.691Z,18.87
2019-04-06T08:07:12.954Z,18.57
2019-04-06T08:09:42.155Z,18.00
2019-04-06T08:12:11.283Z,18.87
2019-04-06T08:14:40.423Z,18.33
2019-04-06T08:17:09.816Z,19.30
2019-04-06T08:19:39.063Z,15.97
2019-04-06T08:22:08.232Z,16.53
2019-04-06T08:24:37.428Z,18.13
2019-04-06T08:27:07.159Z,17.30
2019-04-06T08:29:36.343Z,16.60
2019-04-06T08:32:05.614Z,17.73
2019-04-06T08:34:34.901Z,18.97
2019-04-06T08:37:04.171Z,16.40
2019-04-06T08:39:33.379Z,17.13
2019-04-06T08:42:02.559Z,17.77
2019-04-06T08:44:31.703Z,16.47
2019-04-06T08:47:00.867Z,17.07
2019-04-06T08:49:30.103Z,16.87
2019-04-06T08:51:59.389Z,16.73
2019-04-06T08:54:28.711Z,15.00
2019-04-06T08:56:57.859Z,16.63
2019-04-06T08:59:27.079Z,15.90
2019-04-06T09:01:56.235Z,13.00
2019-04-06T09:04:25.383Z,12.07
2019-04-06T09:06:54.548Z,12.70
2019-04-06T09:09:23.702Z,12.27
2019-04-06T09:11:53.005Z,10.77
2019-04-06T09:14:22.189Z,11.93
2019-04-06T09:16:51.330Z,9.80
2019-04-06T09:19:20.716Z,9.50
2019-04-06T09:21:50.160Z,10.97
2019-04-06T09:24:19.416Z,10.53
2019-04-06T09:26:48.867Z,8.37
2019-04-06T09:29:23.846Z,9.87
2019-04-06T09:31:49.277Z,8.70
2019-04-06T09:34:18.450Z,9.60
2019-04-06T09:36:47.635Z,8.07
2019-04-06T09:39:17.158Z,8.83
2019-04-06T09:41:46.268Z,8.17
2019-04-06T09:44:39.805Z,8.00
2019-04-06T09:47:17.971Z,9.17
2019-04-06T09:50:16.286Z,7.57
2019-04-06T09:52:55.113Z,7.47
2019-04-06T09:55:55.578Z,8.77
2019-04-06T09:58:42.336Z,8.17
2019-04-06T10:01:37.312Z,7.33
2019-04-06T10:04:17.007Z,7.60
2019-04-06T10:07:03.544Z,7.37
2019-04-06T10:09:51.976Z,7.73
2019-04-06T10:12:38.982Z,8.67
2019-04-06T10:15:27.610Z,8.13
2019-04-06T10:18:16.123Z,7.67
2019-04-06T10:21:10.292Z,7.53
2019-04-06T10:24:10.664Z,6.77
2019-04-06T10:26:58.818Z,7.73
2019-04-06T10:29:49.588Z,5.97
2019-04-06T10:32:35.929Z,5.83
2019-04-06T10:35:23.387Z,6.70
2019-04-06T10:38:23.911Z,6.83
2019-04-06T10:41:04.788Z,6.07
2019-04-06T10:43:51.566Z,6.80
2019-04-06T10:46:33.304Z,7.77
2019-04-06T10:49:30.694Z,7.60
2019-04-06T10:52:21.925Z,7.23
2019-04-06T10:55:03.008Z,6.57
2019-04-06T10:57:45.880Z,6.70
2019-04-06T11:00:34.265Z,6.43
2019-04-06T11:03:22.528Z,7.10
2019-04-06T11:06:01.858Z,6.67
2019-04-06T11:08:50.064Z,6.70
2019-04-06T11:11:38.408Z,7.07
2019-04-06T11:14:32.986Z,16.20
2019-04-06T11:17:33.792Z,9.37
2019-04-06T11:20:11.596Z,7.53
2019-04-06T11:22:52.977Z,5.97
2019-04-06T11:25:36.012Z,8.53
2019-04-06T11:28:17.787Z,5.90
2019-04-06T11:31:08.885Z,5.00
2019-04-06T11:33:55.634Z,5.00
2019-04-06T11:36:42.016Z,5.50
2019-04-06T11:39:28.838Z,4.93
2019-04-06T11:42:13.699Z,4.90
2019-04-06T11:44:52.891Z,5.30
2019-04-06T11:47:33.348Z,5.00
2019-04-06T11:50:21.569Z,5.60
2019-04-06T11:53:08.699Z,5.67
2019-04-06T11:56:14.867Z,6.40
2019-04-06T11:59:06.226Z,5.63
2019-04-06T12:01:54.403Z,5.90
2019-04-06T12:04:39.223Z,6.43
2019-04-06T12:07:27.403Z,8.77
2019-04-06T12:10:15.852Z,6.63
2019-04-06T12:13:04.381Z,6.63
2019-04-06T12:15:54.210Z,7.93
2019-04-06T12:18:36.163Z,9.47
2019-04-06T12:21:18.809Z,11.63
2019-04-06T12:24:05.955Z,15.37
2019-04-06T12:26:52.890Z,7.77
2019-04-06T12:29:29.742Z,7.17
2019-04-06T12:32:24.021Z,7.83
2019-04-06T12:34:59.626Z,6.90
2019-04-06T12:37:57.527Z,7.00
2019-04-06T12:40:33.877Z,6.60
2019-04-06T12:43:13.561Z,7.17
2019-04-06T12:46:00.402Z,7.50
2019-04-06T12:48:54.381Z,7.30
2019-04-06T12:51:57.657Z,7.27
2019-04-06T12:54:44.925Z,7.80
2019-04-06T12:57:23.437Z,6.43
2019-04-06T13:00:20.820Z,6.93
2019-04-06T13:03:09.129Z,8.33
2019-04-06T13:06:03.476Z,8.77
2019-04-06T13:08:44.406Z,8.00
2019-04-06T13:11:34.713Z,7.23
2019-04-06T13:14:19.553Z,6.50
2019-04-06T13:17:22.897Z,7.70
2019-04-06T13:20:11.115Z,8.40
2019-04-06T13:23:00.487Z,8.27
2019-04-06T13:25:48.943Z,7.47
2019-04-06T13:28:43.312Z,7.77
2019-04-06T13:31:40.511Z,9.53
2019-04-06T13:34:21.979Z,10.73
2019-04-06T13:37:10.293Z,10.70
2019-04-06T13:39:52.123Z,9.30
2019-04-06T13:42:34.303Z,11.00
2019-04-06T13:45:34.880Z,12.30
2019-04-06T13:48:32.037Z,12.63
2019-04-06T13:51:11.944Z,13.20
2019-04-06T13:53:50.129Z,12.37
2019-04-06T13:56:50.917Z,12.57
2019-04-06T13:59:32.376Z,12.57
2019-04-06T14:02:09.315Z,14.10
2019-04-06T14:05:04.047Z,12.90
2019-04-06T14:07:51.327Z,15.30
2019-04-06T14:10:36.201Z,15.17
2019-04-06T14:13:39.872Z,15.83
2019-04-06T14:16:20.985Z,15.93
2019-04-06T14:19:15.219Z,16.37
2019-04-06T14:21:56.510Z,16.57
2019-04-06T14:24:38.907Z,16.10
2019-04-06T14:27:24.683Z,17.50
2019-04-06T14:30:12.353Z,15.37
2019-04-06T14:32:52.557Z,17.20
2019-04-06T14:35:50.646Z,16.87
2019-04-06T14:38:44.934Z,15.37
2019-04-06T14:41:31.941Z,15.37
2019-04-06T14:44:14.642Z,15.50
2019-04-06T14:47:06.235Z,14.87
2019-04-06T14:49:48.924Z,15.03
2019-04-06T14:52:25.188Z,17.03
2019-04-06T14:55:03.502Z,17.47
2019-04-06T14:57:39.782Z,16.47
2019-04-06T15:00:20.853Z,15.90
2019-04-06T15:03:09.079Z,16.63
2019-04-06T15:06:12.678Z,15.70
2019-04-06T15:09:01.107Z,13.63
2019-04-06T15:11:52.706Z,12.60
2019-04-06T15:14:38.647Z,14.83
2019-04-06T15:17:30.086Z,12.83
2019-04-06T15:20:08.350Z,14.97
2019-04-06T15:23:02.365Z,13.03
2019-04-06T15:25:56.380Z,12.10
2019-04-06T15:28:43.326Z,13.77
2019-04-06T15:31:49.843Z,15.40
2019-04-06T15:34:36.989Z,13.90
2019-04-06T15:37:13.606Z,13.93
2019-04-06T15:40:00.529Z,13.07
2019-04-06T15:42:41.610Z,11.90
2019-04-06T15:45:36.413Z,12.47
2019-04-06T15:48:36.627Z,13.93
2019-04-06T15:51:13.369Z,11.43
2019-04-06T15:54:13.676Z,11.50
2019-04-06T15:57:04.894Z,11.60
2019-04-06T15:59:43.529Z,13.07
2019-04-06T16:02:31.706Z,12.63
2019-04-06T16:05:20.062Z,12.27
2019-04-06T16:07:57.280Z,11.37
2019-04-06T16:10:49.141Z,11.47
2019-04-06T16:13:42.226Z,11.33
2019-04-06T16:16:15.399Z,12.27
2019-04-06T16:18:52.995Z,12.27
2019-04-06T16:21:40.126Z,10.97
2019-04-06T16:24:31.156Z,11.17
2019-04-06T16:27:19.743Z,10.23
2019-04-06T16:29:58.486Z,10.60
2019-04-06T16:32:45.513Z,10.53
2019-04-06T16:35:45.889Z,9.03
2019-04-06T16:38:34.245Z,10.73
2019-04-06T16:41:31.364Z,9.07
2019-04-06T16:44:25.767Z,10.20
2019-04-06T16:47:26.605Z,8.23
2019-04-06T16:50:18.093Z,9.03
2019-04-06T16:53:04.821Z,9.53
2019-04-06T16:55:56.500Z,8.57
2019-04-06T16:58:53.935Z,8.87
2019-04-06T17:01:45.174Z,8.93
2019-04-06T17:04:27.388Z,8.97
2019-04-06T17:07:08.159Z,8.80
2019-04-06T17:10:02.407Z,7.57
2019-04-06T17:12:45.534Z,8.57
2019-04-06T17:15:33.925Z,10.20
2019-04-06T17:18:28.751Z,9.57
2019-04-06T17:21:29.146Z,10.40
2019-04-06T17:24:16.051Z,9.10
2019-04-06T17:27:00.295Z,10.57
2019-04-06T17:29:49.773Z,8.80
2019-04-06T17:32:35.489Z,7.67
2019-04-06T17:35:21.742Z,9.00
2019-04-06T17:38:08.921Z,8.67
2019-04-06T17:40:49.459Z,11.00
2019-04-06T17:43:43.046Z,8.67
2019-04-06T17:46:36.958Z,8.70
2019-04-06T17:49:37.201Z,9.63
2019-04-06T17:52:28.192Z,9.30
2019-04-06T17:55:13.742Z,8.93
2019-04-06T17:57:55.095Z,10.00
2019-04-06T18:00:32.694Z,8.80
2019-04-06T18:03:30.042Z,11.53
2019-04-06T18:06:12.433Z,13.93
2019-04-06T18:08:49.071Z,13.77
2019-04-06T18:11:29.676Z,15.03
2019-04-06T18:13:58.848Z,11.57
2019-04-06T18:16:34.527Z,12.37
2019-04-06T18:19:03.679Z,13.97
2019-04-06T18:21:32.824Z,13.80
2019-04-06T18:24:02.039Z,14.40
2019-04-06T18:26:31.224Z,14.13
2019-04-06T18:29:00.638Z,13.63
2019-04-06T18:31:39.345Z,11.70
2019-04-06T18:34:08.561Z,10.93
2019-04-06T18:36:59.565Z,10.93
2019-04-06T18:39:28.737Z,13.60
2019-04-06T18:41:57.869Z,14.50
2019-04-06T18:44:27.424Z,14.30
2019-04-06T18:46:56.739Z,15.30
2019-04-06T18:49:26.249Z,13.70
2019-04-06T18:51:55.395Z,14.47
2019-04-06T18:54:24.784Z,15.30
2019-04-06T18:56:53.911Z,13.13
2019-04-06T18:59:23.245Z,14.50
2019-04-06T19:01:52.575Z,15.07
2019-04-06T19:04:21.769Z,13.63
2019-04-06T19:06:50.967Z,12.73
2019-04-06T19:09:23.711Z,10.93
2019-04-06T19:11:55.335Z,10.67
2019-04-06T19:14:22.581Z,11.83
2019-04-06T19:16:51.779Z,14.07
2019-04-06T19:19:21.027Z,16.83
2019-04-06T19:21:51.676Z,13.97
2019-04-06T19:24:20.821Z,15.30
2019-04-06T19:26:50.085Z,16.47
2019-04-06T19:29:19.246Z,17.00
2019-04-06T19:31:48.416Z,18.00
2019-04-06T19:34:17.589Z,17.60
2019-04-06T19:36:46.839Z,18.80
2019-04-06T19:39:16.140Z,18.83
2019-04-06T19:41:45.394Z,18.30
2019-04-06T19:44:14.719Z,18.17
2019-04-06T19:46:44.384Z,19.07
2019-04-06T19:49:14.217Z,16.17
2019-04-06T19:51:44.197Z,18.13
2019-04-06T19:54:13.766Z,15.40
2019-04-06T19:56:43.002Z,13.93
2019-04-06T19:59:13.572Z,14.53
2019-04-06T20:01:43.124Z,15.40
2019-04-06T20:04:12.290Z,15.07
2019-04-06T20:06:41.463Z,17.13
2019-04-06T20:09:10.816Z,16.13
2019-04-06T20:11:40.314Z,14.77
2019-04-06T20:14:09.630Z,16.97
2019-04-06T20:16:38.824Z,17.67
2019-04-06T20:19:07.964Z,15.57
2019-04-06T20:21:37.417Z,16.57
2019-04-06T20:24:07.209Z,14.97
2019-04-06T20:26:36.403Z,18.00
2019-04-06T20:29:06.340Z,15.67
2019-04-06T20:31:36.238Z,17.90
2019-04-06T20:34:05.482Z,18.80
2019-04-06T20:36:35.164Z,17.90
2019-04-06T20:39:06.721Z,17.93
2019-04-06T20:41:35.940Z,15.97
2019-04-06T20:44:05.431Z,16.80
2019-04-06T20:46:35.186Z,16.43
2019-04-06T20:49:04.771Z,15.17
2019-04-06T20:51:34.367Z,16.87
2019-04-06T20:54:04.300Z,17.17
2019-04-06T20:56:33.788Z,17.63
2019-04-06T20:59:03.048Z,17.77
2019-04-06T21:01:32.380Z,17.40
2019-04-06T21:04:03.104Z,18.70
2019-04-06T21:06:32.558Z,15.27
2019-04-06T21:09:02.154Z,17.03
2019-04-06T21:11:31.397Z,17.47
2019-04-06T21:14:00.563Z,15.70
2019-04-06T21:16:29.842Z,15.23
2019-04-06T21:18:59.091Z,14.97
2019-04-06T21:21:28.272Z,17.27
2019-04-06T21:23:57.461Z,14.50
2019-04-06T21:26:26.627Z,15.53
2019-04-06T21:28:55.744Z,17.00
2019-04-06T21:31:25.334Z,16.33
2019-04-06T21:33:55.002Z,15.43
2019-04-06T21:36:25.490Z,17.13
2019-04-06T21:38:54.999Z,20.90
2019-04-06T21:41:24.914Z,19.27
2019-04-06T21:43:55.571Z,20.13
2019-04-06T21:46:25.007Z,20.30
2019-04-06T21:48:54.149Z,21.63
2019-04-06T21:51:23.304Z,19.80
2019-04-06T21:53:52.961Z,18.67
2019-04-06T21:56:22.505Z,19.33
2019-04-06T21:58:51.879Z,21.07
2019-04-06T22:01:22.981Z,20.20
2019-04-06T22:03:52.378Z,20.33
2019-04-06T22:06:24.164Z,19.97
2019-04-06T22:08:52.580Z,21.27
2019-04-06T22:11:21.989Z,22.63
2019-04-06T22:13:51.335Z,22.67
2019-04-06T22:16:20.615Z,24.23
2019-04-06T22:18:50.055Z,24.80
2019-04-06T22:21:19.222Z,22.67
2019-04-06T22:23:48.697Z,22.60
2019-04-06T22:26:18.251Z,24.60
2019-04-06T22:28:48.043Z,29.43
2019-04-06T22:31:17.704Z,25.47
2019-04-06T22:33:46.938Z,23.67
2019-04-06T22:36:16.080Z,30.60
2019-04-06T22:38:45.196Z,29.77
2019-04-06T22:41:14.334Z,22.90
2019-04-06T22:43:43.528Z,20.67
2019-04-06T22:46:12.772Z,19.97
2019-04-06T22:48:42.566Z,18.63
2019-04-06T22:51:12.049Z,20.83
2019-04-06T22:53:41.174Z,20.80
2019-04-06T22:56:10.327Z,20.20
2019-04-06T22:58:39.953Z,23.77
2019-04-06T23:01:11.710Z,23.10
2019-04-06T23:04:02.912Z,22.20
2019-04-06T23:06:36.662Z,18.43
2019-04-06T23:09:08.269Z,20.63
2019-04-06T23:11:38.301Z,24.80
2019-04-06T23:14:07.542Z,22.43
2019-04-06T23:16:36.995Z,19.70
2019-04-06T23:19:06.313Z,22.90
2019-04-06T23:21:36.181Z,21.77
2019-04-06T23:24:05.564Z,23.27
2019-04-06T23:26:34.772Z,20.80
2019-04-06T23:29:03.928Z,19.37
2019-04-06T23:31:33.481Z,19.83
2019-04-06T23:34:03.303Z,19.30
2019-04-06T23:36:32.979Z,18.80
2019-04-06T23:39:02.413Z,21.30
2019-04-06T23:41:32.221Z,21.97
2019-04-06T23:44:01.767Z,23.33
2019-04-06T23:46:30.910Z,24.73
2019-04-06T23:49:02.307Z,25.50
2019-04-06T23:51:31.393Z,25.10
2019-04-06T23:54:00.836Z,23.77
2019-04-06T23:56:30.000Z,22.40
2019-04-06T23:58:59.212Z,20.30
